createdAt,value
2018-04-15T00:01:06.877Z,70.40
2018-04-15T00:03:18.270Z,71.20
2018-04-15T00:05:29.666Z,71.70
2018-04-15T00:07:41.840Z,71.40
2018-04-15T00:09:53.266Z,71.40
2018-04-15T00:12:04.678Z,71.50
2018-04-15T00:14:16.089Z,71.00
2018-04-15T00:16:27.617Z,71.80
2018-04-15T00:18:39.022Z,72.10
2018-04-15T00:20:51.475Z,72.30
2018-04-15T00:23:03.582Z,72.20
2018-04-15T00:25:15.050Z,71.50
2018-04-15T00:27:27.618Z,72.70
2018-04-15T00:29:39.018Z,72.70
2018-04-15T00:31:50.438Z,72.40
2018-04-15T00:34:01.877Z,72.60
2018-04-15T00:36:13.271Z,72.90
2018-04-15T00:38:25.404Z,73.60
2018-04-15T00:40:38.346Z,73.50
2018-04-15T00:42:49.714Z,71.00
2018-04-15T00:45:01.144Z,71.70
2018-04-15T00:47:13.305Z,73.10
2018-04-15T00:49:25.090Z,73.00
2018-04-15T00:51:36.505Z,73.10
2018-04-15T00:54:00.877Z,73.70
2018-04-15T00:56:12.233Z,73.60
2018-04-15T00:58:23.691Z,73.10
2018-04-15T01:00:35.159Z,74.10
2018-04-15T01:02:46.594Z,73.70
2018-04-15T01:04:59.297Z,74.80
2018-04-15T01:07:10.730Z,75.30
2018-04-15T01:09:22.120Z,74.60
2018-04-15T01:11:33.599Z,75.20
2018-04-15T01:13:45.011Z,74.60
2018-04-15T01:15:56.426Z,74.50
2018-04-15T01:18:08.049Z,74.10
2018-04-15T01:20:20.144Z,74.40
2018-04-15T01:22:31.682Z,74.60
2018-04-15T01:24:43.864Z,75.30
2018-04-15T01:26:55.258Z,73.20
2018-04-15T01:29:08.099Z,75.10
2018-04-15T01:31:19.525Z,74.20
2018-04-15T01:33:31.875Z,75.10
2018-04-15T01:35:43.242Z,75.20
2018-04-15T01:37:55.475Z,75.60
2018-04-15T01:40:07.388Z,75.40
2018-04-15T01:42:18.787Z,75.50
2018-04-15T01:44:30.537Z,73.60
2018-04-15T01:46:42.259Z,76.00
2018-04-15T01:48:54.218Z,76.60
2018-04-15T01:51:05.705Z,76.20
2018-04-15T01:53:17.109Z,77.70
2018-04-15T01:55:28.522Z,77.30
2018-04-15T01:57:40.643Z,78.00
2018-04-15T01:59:52.864Z,77.70
2018-04-15T02:02:04.221Z,79.00
2018-04-15T02:04:15.635Z,78.10
2018-04-15T02:06:27.003Z,77.70
2018-04-15T02:08:38.390Z,77.10
2018-04-15T02:10:49.818Z,76.90
2018-04-15T02:13:01.999Z,77.20
2018-04-15T02:15:13.482Z,75.00
2018-04-15T02:17:24.843Z,76.90
2018-04-15T02:19:36.358Z,74.80
2018-04-15T02:21:48.532Z,76.30
2018-04-15T02:24:00.020Z,76.20
2018-04-15T02:26:11.378Z,76.10
2018-04-15T02:28:22.810Z,76.00
2018-04-15T02:30:34.338Z,75.70
2018-04-15T02:32:45.990Z,75.70
2018-04-15T02:34:57.503Z,75.40
2018-04-15T02:37:08.915Z,75.20
2018-04-15T02:39:21.046Z,75.20
2018-04-15T02:41:32.402Z,75.10
2018-04-15T02:43:44.518Z,75.30
2018-04-15T02:45:56.074Z,75.20
2018-04-15T02:48:08.349Z,74.90
2018-04-15T02:50:19.811Z,75.00
2018-04-15T02:52:31.222Z,74.90
2018-04-15T02:54:42.620Z,74.70
2018-04-15T02:56:54.761Z,75.20
2018-04-15T02:59:06.194Z,75.00
2018-04-15T03:01:18.481Z,75.40
2018-04-15T03:03:30.574Z,75.60
2018-04-15T03:05:42.002Z,75.70
2018-04-15T03:07:53.466Z,75.80
2018-04-15T03:10:04.853Z,75.20
2018-04-15T03:12:16.280Z,75.90
2018-04-15T03:14:28.049Z,76.80
2018-04-15T03:16:40.201Z,76.80
2018-04-15T03:18:51.642Z,77.20
2018-04-15T03:21:03.952Z,76.40
2018-04-15T03:23:15.338Z,77.00
2018-04-15T03:25:28.011Z,76.90
2018-04-15T03:27:39.459Z,75.70
2018-04-15T03:29:51.033Z,76.30
2018-04-15T03:32:03.183Z,76.70
2018-04-15T03:34:15.152Z,76.60
2018-04-15T03:36:27.452Z,76.90
2018-04-15T03:38:38.832Z,76.80
2018-04-15T03:40:50.229Z,77.00
2018-04-15T03:43:01.653Z,77.30
2018-04-15T03:45:14.495Z,77.90
2018-04-15T03:47:26.826Z,77.80
2018-04-15T03:49:38.797Z,78.30
2018-04-15T03:51:50.177Z,76.30
2018-04-15T03:54:01.582Z,78.00
2018-04-15T03:56:14.077Z,78.00
2018-04-15T03:58:26.033Z,77.90
2018-04-15T04:00:38.199Z,78.00
2018-04-15T04:02:49.618Z,77.80
2018-04-15T04:05:01.084Z,78.40
2018-04-15T04:07:13.289Z,78.30
2018-04-15T04:09:25.508Z,79.50
2018-04-15T04:11:36.863Z,77.90
2018-04-15T04:13:50.160Z,78.00
2018-04-15T04:16:02.133Z,77.90
2018-04-15T04:18:25.779Z,77.60
2018-04-15T04:20:49.409Z,77.90
2018-04-15T04:23:13.170Z,77.30
2018-04-15T04:25:36.854Z,77.10
2018-04-15T04:27:48.253Z,78.10
2018-04-15T04:29:59.662Z,78.10
2018-04-15T04:32:11.923Z,78.20
2018-04-15T04:34:23.386Z,78.10
2018-04-15T04:36:34.791Z,78.20
2018-04-15T04:38:47.141Z,78.40
2018-04-15T04:40:58.547Z,79.10
2018-04-15T04:43:10.972Z,79.20
2018-04-15T04:45:22.422Z,79.70
2018-04-15T04:47:34.557Z,80.00
2018-04-15T04:49:45.971Z,79.90
2018-04-15T04:51:58.157Z,80.30
2018-04-15T04:54:09.522Z,80.90
2018-04-15T04:56:21.933Z,81.30
2018-04-15T04:58:33.907Z,80.80
2018-04-15T05:00:45.398Z,80.80
2018-04-15T05:02:56.803Z,80.60
2018-04-15T05:05:08.258Z,80.30
2018-04-15T05:07:19.682Z,81.80
2018-04-15T05:09:31.091Z,80.90
2018-04-15T05:11:43.230Z,80.60
2018-04-15T05:13:55.725Z,80.40
2018-04-15T05:16:07.161Z,80.90
2018-04-15T05:18:19.259Z,81.70
2018-04-15T05:20:31.591Z,81.10
2018-04-15T05:22:43.033Z,80.20
2018-04-15T05:24:54.509Z,80.00
2018-04-15T05:27:05.898Z,77.70
2018-04-15T05:29:17.985Z,77.00
2018-04-15T05:31:29.934Z,75.70
2018-04-15T05:33:41.377Z,75.00
2018-04-15T05:35:52.925Z,74.70
2018-04-15T05:38:05.139Z,73.80
2018-04-15T05:40:17.457Z,73.00
2018-04-15T05:42:28.972Z,72.40
2018-04-15T05:44:40.445Z,72.00
2018-04-15T05:46:51.806Z,70.00
2018-04-15T05:49:03.242Z,69.40
2018-04-15T05:51:14.667Z,67.10
2018-04-15T05:53:26.053Z,66.20
2018-04-15T05:55:37.466Z,64.10
2018-04-15T05:57:48.926Z,63.30
2018-04-15T06:00:00.333Z,63.70
2018-04-15T06:02:11.730Z,62.90
2018-04-15T06:04:23.209Z,61.90
2018-04-15T06:06:34.697Z,61.00
2018-04-15T06:08:46.082Z,60.90
2018-04-15T06:10:57.473Z,60.80
2018-04-15T06:13:10.683Z,60.40
2018-04-15T06:15:22.140Z,60.00
2018-04-15T06:17:33.600Z,60.00
2018-04-15T06:19:45.112Z,57.80
2018-04-15T06:21:56.520Z,56.50
2018-04-15T06:24:08.062Z,56.50
2018-04-15T06:26:19.422Z,55.40
2018-04-15T06:28:30.996Z,55.80
2018-04-15T06:30:42.469Z,56.30
2018-04-15T06:32:53.878Z,55.80
2018-04-15T06:35:05.308Z,55.30
2018-04-15T06:37:16.738Z,54.70
2018-04-15T06:39:28.285Z,55.10
2018-04-15T06:41:40.433Z,55.30
2018-04-15T06:43:51.987Z,55.00
2018-04-15T06:46:03.374Z,54.60
2018-04-15T06:48:14.806Z,54.80
2018-04-15T06:50:26.231Z,54.20
2018-04-15T06:52:37.644Z,53.70
2018-04-15T06:54:49.010Z,54.00
2018-04-15T06:57:00.476Z,55.00
2018-04-15T06:59:11.860Z,54.20
2018-04-15T07:01:23.287Z,54.10
2018-04-15T07:03:35.436Z,53.00
2018-04-15T07:05:46.861Z,52.60
2018-04-15T07:07:58.439Z,51.70
2018-04-15T07:10:11.020Z,50.00
2018-04-15T07:12:22.413Z,51.50
2018-04-15T07:14:34.004Z,50.90
2018-04-15T07:16:45.435Z,50.00
2018-04-15T07:18:56.931Z,48.50
2018-04-15T07:21:08.428Z,48.30
2018-04-15T07:23:19.829Z,47.90
2018-04-15T07:25:31.303Z,47.80
2018-04-15T07:27:42.795Z,47.30
2018-04-15T07:29:54.207Z,46.80
2018-04-15T07:32:05.602Z,45.50
2018-04-15T07:34:17.020Z,45.30
2018-04-15T07:36:28.487Z,45.00
2018-04-15T07:38:39.864Z,45.20
2018-04-15T07:40:51.276Z,45.70
2018-04-15T07:43:02.671Z,45.40
2018-04-15T07:45:15.220Z,47.20
2018-04-15T07:47:26.713Z,47.00
2018-04-15T07:49:38.217Z,47.10
2018-04-15T07:51:49.733Z,47.10
2018-04-15T07:54:01.147Z,47.10
2018-04-15T07:56:12.656Z,46.80
2018-04-15T07:58:24.474Z,46.10
2018-04-15T08:00:36.701Z,47.30
2018-04-15T08:02:48.075Z,47.10
2018-04-15T08:05:00.277Z,47.40
2018-04-15T08:07:12.782Z,47.50
2018-04-15T08:09:25.013Z,47.60
2018-04-15T08:11:37.750Z,48.00
2018-04-15T08:13:49.138Z,48.30
2018-04-15T08:16:00.599Z,48.50
2018-04-15T08:18:12.004Z,47.70
2018-04-15T08:20:23.662Z,48.10
2018-04-15T08:22:35.106Z,48.60
2018-04-15T08:24:46.645Z,48.60
2018-04-15T08:26:57.992Z,49.80
2018-04-15T08:29:09.400Z,49.00
2018-04-15T08:31:20.813Z,48.80
2018-04-15T08:33:33.547Z,49.50
2018-04-15T08:35:45.009Z,49.20
2018-04-15T08:37:56.630Z,49.00
2018-04-15T08:40:08.120Z,50.20
